Airfield :
LOGIN :

Register | Disclaimer

   EN    FR    IT 

 










Legend :    VFR   Marginal VFR   IFR   Intensive IFR   Very Intensive IFR
Visi :
Ceiling :
>= 8 km
>= 3000ft
5 to 8 km
1000 to 3000 ft
1500m to 5 km
500 to 1000 ft
800 to 1500m
200 to 500 ft
< 800m
< 200 ft
Symbols :   Thunderstorms  Fog  Heavy snow  Heavy precipitations  Wind > 20 kt
SIGMETs :     Misc.  Thunderstorms  Icing  Turbulence  Mountain Waves  Volcanic Ashes







- Airport Elevation : 37 ft


EHVL - Vlieland Heliport

CURRENT METAR :
  • 190655Z AUTO 14011KT 1400 BR OVC110 14/13 Q1009 AMB

EXPIRED METARs :
  • 190625Z AUTO 14009KT 1300 BR BKN130 OVC200 13/13 Q1010 AMB
  • 190555Z AUTO 14007KT 1500 BR OVC190 13/13 Q1010 AMB
  • 190545Z AUTO 14007KT 1600 BR FEW110 OVC190 13/13 Q1010 YLO
  • 190525Z AUTO 14006KT 1500 BR BKN110 OVC200 13/12 Q1010 AMB
  • 190455Z AUTO 15006KT 1300 BR OVC110 12/12 Q1010 AMB
  • 190442Z AUTO 15005KT 1500 BR FEW110 OVC250 12/12 Q1010 AMB
  • 190425Z AUTO 16006KT 1600 BR OVC110 12/12 Q1010 YLO

Expired Forecast.
No reported NOTAMs for that airfield.



MET'MAP, your aeronautical weather chart ! - Copyright ORBIFLY December 2007 - Disclaimer

ORBIFLY MET'MAP TEAM :

Programming & Development : Alexandra Zaïnal
Concept & Development : Baudouin d'Aumeries
Co-Development & Prog : Marc-Olivier Méhu
Technical & hardware support : Manuel Goepfert

Contact : metmap@orbifly.com




SOURCES & CREDITS :

   NOAA